Time;durP1;ratioP1;P1;durP2;ratioP2;P2;SDS_P1;SDS_P2;PMS_P1;PMS_P2;Temp;Humidity;BMP_temperature;BMP_pressure;BME280_temperature;BME280_humidity;BME280_pressure;Samples;Min_cycle;Max_cycle;Signal;HPM_P1;HPM_P2
2023/04/16 00:08:39;;;;;;;0.95;0.35;;;1.50;99.90;;;;;;20753191;28;20467;-52
2023/04/16 00:18:41;;;;;;;1.05;0.30;;;1.60;99.90;;;;;;20752254;28;20050;-49
2023/04/16 00:28:43;;;;;;;0.98;0.20;;;1.70;99.90;;;;;;20752163;28;20084;-51
2023/04/16 00:38:44;;;;;;;1.00;0.30;;;2.30;99.90;;;;;;20751265;28;20030;-52
2023/04/16 00:48:47;;;;;;;0.40;0.20;;;2.30;99.90;;;;;;20749784;28;20049;-48
2023/04/16 00:58:49;;;;;;;0.43;0.20;;;1.90;99.90;;;;;;20749237;28;20100;-50
2023/04/16 01:08:51;;;;;;;1.27;0.20;;;1.90;99.90;;;;;;20731838;28;20100;-51
2023/04/16 01:18:52;;;;;;;0.50;0.22;;;1.70;99.90;;;;;;20746497;28;20042;-50
2023/04/16 01:28:54;;;;;;;0.38;0.13;;;1.60;99.90;;;;;;20746810;28;20065;-51
2023/04/16 01:38:56;;;;;;;0.70;0.10;;;1.60;99.90;;;;;;20744803;28;20080;-53
2023/04/16 01:48:58;;;;;;;0.45;0.10;;;1.70;99.90;;;;;;20745344;28;20077;-52
2023/04/16 01:59:00;;;;;;;1.45;0.10;;;1.70;99.90;;;;;;20743794;28;20431;-52
2023/04/16 02:09:08;;;;;;;0.10;0.08;;;1.70;99.90;;;;;;20743682;28;20042;-52
2023/04/16 02:19:11;;;;;;;0.30;0.10;;;1.20;99.90;;;;;;20741597;28;20046;-52
2023/04/16 02:29:13;;;;;;;0.40;0.20;;;1.10;99.90;;;;;;20741117;28;20033;-52
2023/04/16 02:39:19;;;;;;;0.45;0.25;;;1.10;99.90;;;;;;20740584;28;20046;-60
2023/04/16 02:49:21;;;;;;;0.30;0.10;;;1.30;99.90;;;;;;20757651;28;20037;-52
2023/04/16 02:59:23;;;;;;;0.68;0.00;;;1.70;99.90;;;;;;20739077;28;20100;-53
2023/04/16 03:09:24;;;;;;;0.60;0.10;;;1.80;99.90;;;;;;20738786;28;20073;-60
2023/04/16 03:19:26;;;;;;;0.40;0.10;;;2.00;99.90;;;;;;20739618;28;20077;-50
2023/04/16 03:29:28;;;;;;;0.30;0.00;;;2.00;99.90;;;;;;20737942;28;20399;-59
2023/04/16 03:39:32;;;;;;;0.20;0.10;;;2.00;99.90;;;;;;20737396;28;20037;-53
2023/04/16 03:49:34;;;;;;;0.25;0.10;;;1.70;99.90;;;;;;20737308;28;20387;-50
2023/04/16 03:59:36;;;;;;;0.10;0.00;;;1.20;99.90;;;;;;20737688;28;20434;-53
2023/04/16 04:09:37;;;;;;;1.35;0.00;;;1.20;99.90;;;;;;20718017;28;20538;-59
2023/04/16 04:19:39;;;;;;;0.00;0.00;;;1.50;99.90;;;;;;20737030;28;20038;-49
2023/04/16 04:29:42;;;;;;;0.00;0.00;;;1.60;99.90;;;;;;20747152;28;20434;-51
2023/04/16 04:39:43;;;;;;;0.08;0.00;;;1.70;99.90;;;;;;20749547;28;20368;-52
2023/04/16 04:49:47;;;;;;;0.00;0.00;;;1.90;99.90;;;;;;20750046;28;20042;-52
2023/04/16 04:59:48;;;;;;;0.05;0.00;;;2.40;99.90;;;;;;20749193;28;20038;-49
2023/04/16 05:09:51;;;;;;;0.25;0.10;;;2.80;99.90;;;;;;20747336;28;20091;-51
2023/04/16 05:19:52;;;;;;;0.00;0.00;;;2.90;99.90;;;;;;20748347;28;20052;-52
2023/04/16 05:29:55;;;;;;;0.20;0.00;;;3.20;99.90;;;;;;20745699;28;20054;-52
2023/04/16 05:39:57;;;;;;;0.13;0.00;;;3.50;99.90;;;;;;20744679;28;20038;-48
2023/04/16 05:49:59;;;;;;;0.20;0.00;;;3.90;99.90;;;;;;20745366;28;20034;-53
2023/04/16 06:00:01;;;;;;;0.47;0.00;;;4.10;99.90;;;;;;20744585;28;20038;-52
2023/04/16 06:10:03;;;;;;;0.10;0.00;;;4.70;99.80;;;;;;20742082;28;20041;-53
2023/04/16 06:20:06;;;;;;;0.00;0.00;;;5.00;99.90;;;;;;20743272;28;20104;-51
2023/04/16 06:30:12;;;;;;;0.00;0.00;;;5.20;99.30;;;;;;20741308;28;20471;-49
2023/04/16 06:40:14;;;;;;;2.08;0.03;;;5.60;99.30;;;;;;20739967;28;20057;-49
2023/04/16 06:50:16;;;;;;;0.00;0.00;;;6.00;97.60;;;;;;20741251;28;20382;-48
2023/04/16 07:00:18;;;;;;;0.05;0.00;;;6.30;96.70;;;;;;20740710;28;20042;-52
2023/04/16 07:10:22;;;;;;;0.10;0.00;;;6.50;95.90;;;;;;20738458;28;20052;-50
2023/04/16 07:20:24;;;;;;;0.00;0.00;;;6.70;96.10;;;;;;20739679;28;20565;-49
2023/04/16 07:30:31;;;;;;;0.00;0.00;;;6.90;96.00;;;;;;20738492;28;20546;-48
2023/04/16 07:40:33;;;;;;;0.10;0.00;;;7.10;94.30;;;;;;20720770;28;20045;-50
2023/04/16 07:50:35;;;;;;;0.00;0.00;;;7.10;95.10;;;;;;20737892;28;20034;-62
2023/04/16 08:00:37;;;;;;;0.00;0.00;;;7.40;94.30;;;;;;20743342;28;20026;-63
2023/04/16 08:10:39;;;;;;;0.00;0.00;;;7.80;93.00;;;;;;20751739;28;20026;-62
2023/04/16 08:20:41;;;;;;;0.00;0.00;;;8.20;91.80;;;;;;20752126;28;20041;-49
2023/04/16 08:30:44;;;;;;;0.00;0.00;;;8.40;91.60;;;;;;20751312;28;20034;-64
2023/04/16 08:40:47;;;;;;;0.00;0.00;;;8.90;90.60;;;;;;20750952;28;20037;-52
2023/04/16 08:50:51;;;;;;;0.00;0.00;;;8.80;90.60;;;;;;20750242;28;20545;-48
2023/04/16 09:00:54;;;;;;;0.10;0.00;;;10.80;90.70;;;;;;20749023;28;20095;-50
2023/04/16 09:10:56;;;;;;;0.22;0.00;;;12.00;95.00;;;;;;20745418;28;20387;-52
2023/04/16 09:20:58;;;;;;;0.03;0.00;;;10.10;82.90;;;;;;20747633;28;20038;-54
2023/04/16 09:31:17;;;;;;;0.00;0.00;;;9.20;86.70;;;;;;20746920;28;20487;-62
2023/04/16 09:41:23;;;;;;;0.08;0.00;;;8.80;88.40;;;;;;20745244;28;20034;-63
2023/04/16 09:51:25;;;;;;;0.55;0.00;;;10.20;88.10;;;;;;20745760;28;20111;-48
2023/04/16 10:01:29;;;;;;;0.10;0.00;;;10.80;82.10;;;;;;20744713;28;20026;-62
2023/04/16 10:11:31;;;;;;;0.00;0.00;;;11.00;85.10;;;;;;20741049;28;20040;-63
2023/04/16 10:21:32;;;;;;;0.65;0.00;;;11.40;84.80;;;;;;20742480;28;20049;-51
2023/04/16 10:31:37;;;;;;;1.00;0.70;;;12.00;85.50;;;;;;20742450;28;20033;-49
2023/04/16 10:41:39;;;;;;;1.95;1.40;;;13.30;97.10;;;;;;20742673;28;20044;-48
2023/04/16 10:51:41;;;;;;;1.67;1.40;;;14.60;97.30;;;;;;20740926;28;20534;-51
2023/04/16 11:01:44;;;;;;;2.42;1.60;;;14.70;92.00;;;;;;20739330;28;20038;-63
2023/04/16 11:11:46;;;;;;;3.58;2.15;;;14.50;93.80;;;;;;20738948;28;20373;-62
2023/04/16 11:21:49;;;;;;;2.70;1.73;;;14.40;96.80;;;;;;20737856;28;20487;-61
2023/04/16 11:31:52;;;;;;;3.20;1.85;;;14.30;94.90;;;;;;20740674;28;20360;-52
2023/04/16 11:41:54;;;;;;;2.88;2.20;;;13.60;92.60;;;;;;20755301;28;20034;-52
2023/04/16 11:51:57;;;;;;;4.15;2.33;;;12.90;95.60;;;;;;20754940;28;20038;-61
2023/04/16 12:01:58;;;;;;;3.55;3.03;;;12.50;99.00;;;;;;20750336;28;20029;-49
2023/04/16 12:12:00;;;;;;;3.60;3.10;;;14.20;97.10;;;;;;20751607;28;20359;-52
2023/04/16 12:22:01;;;;;;;4.20;3.25;;;15.50;97.30;;;;;;20751249;28;20049;-50
2023/04/16 12:32:03;;;;;;;3.72;3.10;;;16.10;96.00;;;;;;20751771;28;20049;-47
2023/04/16 12:42:08;;;;;;;4.85;3.03;;;16.20;95.10;;;;;;20751481;28;20391;-63
2023/04/16 12:52:10;;;;;;;7.95;3.95;;;14.90;94.60;;;;;;20748988;28;20373;-64
2023/04/16 13:02:12;;;;;;;5.55;4.13;;;14.80;97.40;;;;;;20747540;28;20037;-63
2023/04/16 13:12:14;;;;;;;4.53;3.60;;;15.60;92.70;;;;;;20747175;28;20068;-64
2023/04/16 13:22:16;;;;;;;4.68;3.95;;;15.70;93.10;;;;;;20747713;28;20037;-62
2023/04/16 13:32:18;;;;;;;4.90;3.90;;;14.80;95.30;;;;;;20746931;28;20091;-62
2023/04/16 13:42:20;;;;;;;5.43;4.35;;;13.60;97.50;;;;;;20745868;28;20045;-65
2023/04/16 13:52:22;;;;;;;6.78;4.43;;;14.30;97.20;;;;;;20745578;28;20042;-64
2023/04/16 14:02:25;;;;;;;5.82;4.55;;;15.00;95.20;;;;;;20740923;28;20056;-62
2023/04/16 14:12:27;;;;;;;5.28;4.38;;;14.20;94.80;;;;;;20732839;28;20053;-62
2023/04/16 14:22:29;;;;;;;6.82;4.88;;;13.20;96.80;;;;;;20743279;28;20034;-53
2023/04/16 14:32:31;;;;;;;5.60;4.50;;;13.20;96.50;;;;;;20742478;28;20037;-54
2023/04/16 14:42:35;;;;;;;6.13;5.40;;;13.30;96.30;;;;;;20741940;28;20037;-54
2023/04/16 14:52:36;;;;;;;6.18;4.50;;;12.40;96.30;;;;;;20741359;28;20428;-52
2023/04/16 15:02:38;;;;;;;6.63;4.68;;;11.90;99.00;;;;;;20738652;28;20045;-67
2023/04/16 15:12:40;;;;;;;4.85;3.97;;;12.70;98.10;;;;;;20738714;28;20511;-53
2023/04/16 15:22:42;;;;;;;5.78;4.47;;;12.60;96.90;;;;;;20739691;28;20435;-54
2023/04/16 15:32:44;;;;;;;6.40;5.00;;;11.60;98.30;;;;;;20739136;28;20030;-55
2023/04/16 15:42:46;;;;;;;5.35;4.80;;;10.80;98.80;;;;;;20738781;28;20186;-61
2023/04/16 15:52:47;;;;;;;6.70;4.60;;;10.00;99.90;;;;;;20738407;28;20383;-61
2023/04/16 16:02:49;;;;;;;6.80;5.45;;;9.20;99.90;;;;;;20735518;28;20541;-57
2023/04/16 16:12:51;;;;;;;8.13;6.10;;;8.50;99.90;;;;;;20738304;28;20038;-56
2023/04/16 16:22:53;;;;;;;7.38;6.07;;;7.90;99.90;;;;;;20744657;28;20038;-56
2023/04/16 16:32:55;;;;;;;8.88;5.93;;;7.90;99.90;;;;;;20709656;28;20025;-61
2023/04/16 16:42:57;;;;;;;7.68;5.60;;;8.20;99.90;;;;;;20773721;28;20423;-53
2023/04/16 16:52:59;;;;;;;9.20;5.85;;;8.40;99.90;;;;;;20750185;28;20399;-62
2023/04/16 17:03:01;;;;;;;8.52;6.18;;;8.10;99.90;;;;;;20748180;28;20100;-55
2023/04/16 17:13:02;;;;;;;7.68;5.63;;;7.70;99.90;;;;;;20748583;28;20518;-61
2023/04/16 17:23:04;;;;;;;9.48;6.03;;;7.50;99.90;;;;;;20747818;28;20029;-56
2023/04/16 17:33:06;;;;;;;7.97;5.88;;;7.30;99.90;;;;;;20730211;28;20046;-56
2023/04/16 17:43:08;;;;;;;10.57;6.78;;;6.90;99.90;;;;;;20743582;28;20033;-59
2023/04/16 17:53:09;;;;;;;9.85;6.30;;;6.60;99.90;;;;;;20745639;28;20088;-61
2023/04/16 18:03:12;;;;;;;11.23;7.80;;;6.00;99.90;;;;;;20744822;28;20029;-54
2023/04/16 18:13:14;;;;;;;11.52;8.20;;;5.20;99.90;;;;;;20744026;28;20399;-57
2023/04/16 18:23:16;;;;;;;13.20;8.65;;;4.40;99.90;;;;;;20743437;28;20434;-55
2023/04/16 18:33:17;;;;;;;13.82;9.25;;;3.70;99.90;;;;;;20765321;28;20540;-60
2023/04/16 18:43:19;;;;;;;13.10;9.82;;;3.30;99.90;;;;;;20744796;28;20084;-54
2023/04/16 18:53:21;;;;;;;14.77;10.40;;;3.00;99.90;;;;;;20741281;28;20038;-52
2023/04/16 19:03:23;;;;;;;16.27;10.40;;;2.80;99.90;;;;;;20737985;28;20030;-54
2023/04/16 19:13:25;;;;;;;17.25;11.43;;;2.70;99.90;;;;;;20721847;28;20052;-54
2023/04/16 19:23:27;;;;;;;16.30;11.05;;;2.50;99.90;;;;;;20700389;28;20115;-54
2023/04/16 19:33:30;;;;;;;17.00;10.35;;;2.30;99.90;;;;;;20737390;28;20030;-54
2023/04/16 19:43:32;;;;;;;16.20;10.18;;;2.30;99.90;;;;;;20739901;28;20050;-60
2023/04/16 19:53:33;;;;;;;9.20;6.43;;;2.40;99.90;;;;;;20740801;28;20108;-59
2023/04/16 20:03:36;;;;;;;7.38;4.75;;;2.30;99.90;;;;;;20754362;28;20561;-53
2023/04/16 20:13:38;;;;;;;6.95;4.18;;;2.20;99.90;;;;;;20751853;28;20403;-52
2023/04/16 20:23:40;;;;;;;7.30;4.47;;;2.10;99.90;;;;;;20752988;28;20037;-60
2023/04/16 20:33:41;;;;;;;9.23;4.95;;;2.00;99.90;;;;;;20711651;28;20041;-54
2023/04/16 20:43:43;;;;;;;4.15;2.90;;;1.80;99.90;;;;;;20717162;28;20034;-52
2023/04/16 20:53:44;;;;;;;3.28;2.00;;;1.80;99.90;;;;;;20750380;28;20049;-52
2023/04/16 21:03:46;;;;;;;2.00;1.40;;;1.80;99.90;;;;;;20764406;28;20534;-53
2023/04/16 21:13:48;;;;;;;4.00;1.05;;;1.90;99.90;;;;;;20749184;28;20046;-53
2023/04/16 21:23:49;;;;;;;2.58;1.00;;;1.90;99.90;;;;;;20730894;28;20497;-53
2023/04/16 21:33:51;;;;;;;1.38;0.80;;;2.00;99.90;;;;;;20747422;28;20026;-55
2023/04/16 21:43:54;;;;;;;1.75;0.90;;;1.80;99.90;;;;;;20744938;28;20030;-50
2023/04/16 21:53:56;;;;;;;1.02;0.50;;;1.80;99.90;;;;;;20744459;28;20046;-50
2023/04/16 22:03:57;;;;;;;1.02;0.55;;;1.80;99.90;;;;;;20745120;28;20089;-55
2023/04/16 22:13:59;;;;;;;1.10;0.57;;;2.10;99.90;;;;;;20743892;28;20073;-53
2023/04/16 22:24:01;;;;;;;1.10;0.50;;;2.20;99.90;;;;;;20742307;28;20037;-53
2023/04/16 22:34:03;;;;;;;0.63;0.30;;;2.60;99.90;;;;;;20741717;28;20399;-54
2023/04/16 22:44:05;;;;;;;1.48;0.50;;;2.50;99.90;;;;;;20741433;28;20083;-61
2023/04/16 22:54:06;;;;;;;1.00;0.70;;;2.40;99.90;;;;;;20741385;28;20507;-51
2023/04/16 23:04:08;;;;;;;1.52;0.60;;;2.50;99.90;;;;;;20740989;28;20423;-53
2023/04/16 23:14:12;;;;;;;0.90;0.50;;;2.40;99.90;;;;;;20740694;28;20786;-54
2023/04/16 23:24:14;;;;;;;2.58;0.63;;;2.40;99.90;;;;;;20739252;28;20080;-53
2023/04/16 23:34:15;;;;;;;0.70;0.30;;;2.50;99.90;;;;;;20759368;28;20041;-53
2023/04/16 23:44:17;;;;;;;0.60;0.28;;;3.70;99.90;;;;;;20766450;28;20045;-52
2023/04/16 23:54:20;;;;;;;0.43;0.30;;;4.30;99.90;;;;;;20765769;28;20490;-50
